sensor_id;sensor_type;location;lat;lon;timestamp;P1;durP1;ratioP1;P2;durP2;ratioP2
24435;SDS011;12616;52.470;13.436;2023-09-30T00:01:57;2.70;;;1.50;;
24435;SDS011;12616;52.470;13.436;2023-09-30T00:04:24;6.17;;;1.93;;
24435;SDS011;12616;52.470;13.436;2023-09-30T00:06:52;6.63;;;2.00;;
24435;SDS011;12616;52.470;13.436;2023-09-30T00:09:19;4.33;;;2.00;;
24435;SDS011;12616;52.470;13.436;2023-09-30T00:11:48;2.23;;;1.80;;
24435;SDS011;12616;52.470;13.436;2023-09-30T00:14:14;5.80;;;2.33;;
24435;SDS011;12616;52.470;13.436;2023-09-30T00:16:42;5.00;;;2.77;;
24435;SDS011;12616;52.470;13.436;2023-09-30T00:19:09;5.30;;;1.83;;
24435;SDS011;12616;52.470;13.436;2023-09-30T00:21:36;4.13;;;2.13;;
24435;SDS011;12616;52.470;13.436;2023-09-30T00:24:03;6.67;;;2.50;;
24435;SDS011;12616;52.470;13.436;2023-09-30T00:26:30;2.93;;;2.20;;
24435;SDS011;12616;52.470;13.436;2023-09-30T00:28:58;3.40;;;1.80;;
24435;SDS011;12616;52.470;13.436;2023-09-30T00:31:37;8.67;;;2.47;;
24435;SDS011;12616;52.470;13.436;2023-09-30T00:34:28;7.03;;;2.90;;
24435;SDS011;12616;52.470;13.436;2023-09-30T00:37:39;3.53;;;2.70;;
24435;SDS011;12616;52.470;13.436;2023-09-30T00:40:38;4.87;;;1.90;;
24435;SDS011;12616;52.470;13.436;2023-09-30T00:43:40;6.33;;;2.53;;
24435;SDS011;12616;52.470;13.436;2023-09-30T00:46:33;3.70;;;2.30;;
24435;SDS011;12616;52.470;13.436;2023-09-30T00:49:21;4.03;;;2.33;;
24435;SDS011;12616;52.470;13.436;2023-09-30T00:55:15;5.70;;;2.40;;
24435;SDS011;12616;52.470;13.436;2023-09-30T01:17:01;9.70;;;3.67;;
24435;SDS011;12616;52.470;13.436;2023-09-30T02:01:01;7.13;;;3.00;;
24435;SDS011;12616;52.470;13.436;2023-09-30T02:04:25;8.10;;;3.30;;
24435;SDS011;12616;52.470;13.436;2023-09-30T03:16:42;12.73;;;4.30;;
24435;SDS011;12616;52.470;13.436;2023-09-30T03:23:30;7.43;;;3.93;;
24435;SDS011;12616;52.470;13.436;2023-09-30T03:27:39;9.30;;;3.53;;
24435;SDS011;12616;52.470;13.436;2023-09-30T03:49:45;7.77;;;3.83;;
24435;SDS011;12616;52.470;13.436;2023-09-30T03:59:24;6.77;;;3.90;;
24435;SDS011;12616;52.470;13.436;2023-09-30T04:12:12;12.27;;;3.87;;
24435;SDS011;12616;52.470;13.436;2023-09-30T05:37:39;12.30;;;4.13;;
24435;SDS011;12616;52.470;13.436;2023-09-30T05:47:50;13.00;;;4.10;;
24435;SDS011;12616;52.470;13.436;2023-09-30T06:09:15;13.13;;;3.60;;
24435;SDS011;12616;52.470;13.436;2023-09-30T06:12:55;6.40;;;3.60;;
24435;SDS011;12616;52.470;13.436;2023-09-30T06:18:28;5.80;;;3.33;;
24435;SDS011;12616;52.470;13.436;2023-09-30T06:21:15;15.37;;;4.47;;
24435;SDS011;12616;52.470;13.436;2023-09-30T06:23:59;9.10;;;3.40;;
24435;SDS011;12616;52.470;13.436;2023-09-30T06:26:39;5.17;;;3.30;;
24435;SDS011;12616;52.470;13.436;2023-09-30T06:35:49;16.63;;;4.10;;
24435;SDS011;12616;52.470;13.436;2023-09-30T06:45:46;9.23;;;3.50;;
24435;SDS011;12616;52.470;13.436;2023-09-30T06:51:38;8.13;;;3.37;;
24435;SDS011;12616;52.470;13.436;2023-09-30T06:57:48;8.30;;;3.60;;
24435;SDS011;12616;52.470;13.436;2023-09-30T07:07:18;5.80;;;3.50;;
24435;SDS011;12616;52.470;13.436;2023-09-30T07:13:29;8.40;;;3.30;;
24435;SDS011;12616;52.470;13.436;2023-09-30T07:16:23;10.67;;;3.90;;
24435;SDS011;12616;52.470;13.436;2023-09-30T07:20:09;12.20;;;3.93;;
24435;SDS011;12616;52.470;13.436;2023-09-30T07:25:52;11.83;;;3.90;;
24435;SDS011;12616;52.470;13.436;2023-09-30T07:28:37;16.97;;;4.20;;
24435;SDS011;12616;52.470;13.436;2023-09-30T07:31:35;7.50;;;3.27;;
24435;SDS011;12616;52.470;13.436;2023-09-30T07:34:27;8.90;;;3.33;;
24435;SDS011;12616;52.470;13.436;2023-09-30T08:05:23;8.70;;;4.10;;
24435;SDS011;12616;52.470;13.436;2023-09-30T08:08:08;10.37;;;2.93;;
24435;SDS011;12616;52.470;13.436;2023-09-30T08:35:30;10.10;;;3.87;;
24435;SDS011;12616;52.470;13.436;2023-09-30T08:39:02;7.70;;;3.57;;
24435;SDS011;12616;52.470;13.436;2023-09-30T08:42:11;5.40;;;2.40;;
24435;SDS011;12616;52.470;13.436;2023-09-30T08:45:15;14.53;;;2.97;;
24435;SDS011;12616;52.470;13.436;2023-09-30T08:48:48;7.43;;;2.90;;
24435;SDS011;12616;52.470;13.436;2023-09-30T09:55:23;12.33;;;3.23;;
24435;SDS011;12616;52.470;13.436;2023-09-30T09:57:51;11.37;;;2.80;;
24435;SDS011;12616;52.470;13.436;2023-09-30T10:00:21;11.13;;;3.23;;
24435;SDS011;12616;52.470;13.436;2023-09-30T10:02:49;8.03;;;3.20;;
24435;SDS011;12616;52.470;13.436;2023-09-30T10:05:18;5.93;;;2.77;;
24435;SDS011;12616;52.470;13.436;2023-09-30T10:07:47;12.70;;;3.10;;
24435;SDS011;12616;52.470;13.436;2023-09-30T10:10:19;8.03;;;2.50;;
24435;SDS011;12616;52.470;13.436;2023-09-30T10:12:49;10.93;;;3.20;;
24435;SDS011;12616;52.470;13.436;2023-09-30T10:18:08;7.10;;;2.50;;
24435;SDS011;12616;52.470;13.436;2023-09-30T10:20:37;8.80;;;2.70;;
24435;SDS011;12616;52.470;13.436;2023-09-30T10:23:19;9.70;;;3.70;;
24435;SDS011;12616;52.470;13.436;2023-09-30T10:25:47;6.97;;;2.53;;
24435;SDS011;12616;52.470;13.436;2023-09-30T10:31:09;4.83;;;2.27;;
24435;SDS011;12616;52.470;13.436;2023-09-30T10:36:38;7.43;;;2.63;;
24435;SDS011;12616;52.470;13.436;2023-09-30T10:39:10;9.83;;;2.47;;
24435;SDS011;12616;52.470;13.436;2023-09-30T10:44:34;7.17;;;2.60;;
24435;SDS011;12616;52.470;13.436;2023-09-30T10:50:01;11.77;;;3.57;;
24435;SDS011;12616;52.470;13.436;2023-09-30T10:52:29;10.40;;;3.00;;
24435;SDS011;12616;52.470;13.436;2023-09-30T10:55:01;5.30;;;3.17;;
24435;SDS011;12616;52.470;13.436;2023-09-30T10:57:29;5.13;;;2.73;;
24435;SDS011;12616;52.470;13.436;2023-09-30T11:00:10;6.80;;;4.17;;
24435;SDS011;12616;52.470;13.436;2023-09-30T11:02:48;5.80;;;2.57;;
24435;SDS011;12616;52.470;13.436;2023-09-30T11:05:16;9.07;;;2.80;;
24435;SDS011;12616;52.470;13.436;2023-09-30T11:07:43;5.13;;;2.13;;
24435;SDS011;12616;52.470;13.436;2023-09-30T11:10:15;8.67;;;2.10;;
24435;SDS011;12616;52.470;13.436;2023-09-30T11:12:53;5.60;;;1.93;;
24435;SDS011;12616;52.470;13.436;2023-09-30T11:15:22;6.00;;;2.57;;
24435;SDS011;12616;52.470;13.436;2023-09-30T11:17:49;8.77;;;2.30;;
24435;SDS011;12616;52.470;13.436;2023-09-30T11:20:16;6.93;;;1.93;;
24435;SDS011;12616;52.470;13.436;2023-09-30T11:22:44;10.07;;;3.10;;
24435;SDS011;12616;52.470;13.436;2023-09-30T11:25:14;7.00;;;3.03;;
24435;SDS011;12616;52.470;13.436;2023-09-30T11:27:44;7.73;;;2.50;;
24435;SDS011;12616;52.470;13.436;2023-09-30T11:30:12;7.97;;;2.33;;
24435;SDS011;12616;52.470;13.436;2023-09-30T11:32:41;3.30;;;2.00;;
24435;SDS011;12616;52.470;13.436;2023-09-30T11:35:09;5.50;;;2.57;;
24435;SDS011;12616;52.470;13.436;2023-09-30T11:37:37;5.77;;;2.57;;
24435;SDS011;12616;52.470;13.436;2023-09-30T11:40:11;4.90;;;2.23;;
24435;SDS011;12616;52.470;13.436;2023-09-30T11:42:39;6.43;;;3.53;;
24435;SDS011;12616;52.470;13.436;2023-09-30T11:45:18;5.73;;;3.10;;
24435;SDS011;12616;52.470;13.436;2023-09-30T11:47:48;6.73;;;2.73;;
24435;SDS011;12616;52.470;13.436;2023-09-30T11:50:15;4.33;;;2.43;;
24435;SDS011;12616;52.470;13.436;2023-09-30T11:52:44;4.73;;;2.40;;
24435;SDS011;12616;52.470;13.436;2023-09-30T11:55:12;6.80;;;2.30;;
24435;SDS011;12616;52.470;13.436;2023-09-30T11:57:41;6.40;;;2.43;;
24435;SDS011;12616;52.470;13.436;2023-09-30T12:00:09;12.00;;;2.73;;
24435;SDS011;12616;52.470;13.436;2023-09-30T12:02:44;3.10;;;1.97;;
24435;SDS011;12616;52.470;13.436;2023-09-30T12:05:12;4.70;;;2.20;;
24435;SDS011;12616;52.470;13.436;2023-09-30T12:07:39;5.57;;;1.90;;
24435;SDS011;12616;52.470;13.436;2023-09-30T12:10:07;6.70;;;2.43;;
24435;SDS011;12616;52.470;13.436;2023-09-30T12:12:34;4.70;;;2.77;;
24435;SDS011;12616;52.470;13.436;2023-09-30T12:15:01;10.50;;;2.63;;
24435;SDS011;12616;52.470;13.436;2023-09-30T12:17:28;7.03;;;2.80;;
24435;SDS011;12616;52.470;13.436;2023-09-30T12:19:55;5.77;;;2.70;;
24435;SDS011;12616;52.470;13.436;2023-09-30T12:22:24;5.10;;;2.10;;
24435;SDS011;12616;52.470;13.436;2023-09-30T12:24:51;8.13;;;2.20;;
24435;SDS011;12616;52.470;13.436;2023-09-30T12:27:18;9.67;;;2.37;;
24435;SDS011;12616;52.470;13.436;2023-09-30T12:29:45;3.33;;;1.90;;
24435;SDS011;12616;52.470;13.436;2023-09-30T12:32:13;3.10;;;2.20;;
24435;SDS011;12616;52.470;13.436;2023-09-30T12:34:40;7.40;;;1.93;;
24435;SDS011;12616;52.470;13.436;2023-09-30T12:37:07;5.00;;;1.80;;
24435;SDS011;12616;52.470;13.436;2023-09-30T12:39:35;4.60;;;1.80;;
24435;SDS011;12616;52.470;13.436;2023-09-30T12:42:02;8.53;;;2.30;;
24435;SDS011;12616;52.470;13.436;2023-09-30T12:44:33;5.03;;;2.30;;
24435;SDS011;12616;52.470;13.436;2023-09-30T12:47:00;3.83;;;2.10;;
24435;SDS011;12616;52.470;13.436;2023-09-30T12:49:28;3.37;;;1.77;;
24435;SDS011;12616;52.470;13.436;2023-09-30T12:51:55;4.87;;;2.10;;
24435;SDS011;12616;52.470;13.436;2023-09-30T12:54:23;4.70;;;1.80;;
24435;SDS011;12616;52.470;13.436;2023-09-30T12:56:58;4.70;;;2.13;;
24435;SDS011;12616;52.470;13.436;2023-09-30T12:59:31;4.70;;;1.90;;
24435;SDS011;12616;52.470;13.436;2023-09-30T13:01:59;2.90;;;2.10;;
24435;SDS011;12616;52.470;13.436;2023-09-30T13:04:26;3.03;;;1.63;;
24435;SDS011;12616;52.470;13.436;2023-09-30T13:06:52;5.63;;;2.03;;
24435;SDS011;12616;52.470;13.436;2023-09-30T13:09:20;6.93;;;2.20;;
24435;SDS011;12616;52.470;13.436;2023-09-30T13:11:47;4.13;;;2.17;;
24435;SDS011;12616;52.470;13.436;2023-09-30T13:14:15;7.90;;;2.03;;
24435;SDS011;12616;52.470;13.436;2023-09-30T13:16:43;8.40;;;1.90;;
24435;SDS011;12616;52.470;13.436;2023-09-30T13:19:10;3.77;;;1.70;;
24435;SDS011;12616;52.470;13.436;2023-09-30T13:21:37;9.60;;;2.10;;
24435;SDS011;12616;52.470;13.436;2023-09-30T13:24:06;4.80;;;1.90;;
24435;SDS011;12616;52.470;13.436;2023-09-30T13:26:35;2.57;;;1.70;;
24435;SDS011;12616;52.470;13.436;2023-09-30T13:29:02;8.77;;;2.03;;
24435;SDS011;12616;52.470;13.436;2023-09-30T13:31:31;5.57;;;3.37;;
24435;SDS011;12616;52.470;13.436;2023-09-30T13:33:58;18.57;;;2.70;;
24435;SDS011;12616;52.470;13.436;2023-09-30T13:36:28;2.80;;;1.27;;
24435;SDS011;12616;52.470;13.436;2023-09-30T13:38:55;4.70;;;1.57;;
24435;SDS011;12616;52.470;13.436;2023-09-30T13:41:22;4.77;;;1.67;;
24435;SDS011;12616;52.470;13.436;2023-09-30T13:43:49;5.90;;;2.03;;
24435;SDS011;12616;52.470;13.436;2023-09-30T13:46:16;4.80;;;1.97;;
24435;SDS011;12616;52.470;13.436;2023-09-30T13:48:44;3.23;;;1.60;;
24435;SDS011;12616;52.470;13.436;2023-09-30T13:51:12;3.07;;;1.50;;
24435;SDS011;12616;52.470;13.436;2023-09-30T13:53:39;2.23;;;1.60;;
24435;SDS011;12616;52.470;13.436;2023-09-30T13:56:08;3.80;;;2.00;;
24435;SDS011;12616;52.470;13.436;2023-09-30T13:58:35;5.73;;;2.37;;
24435;SDS011;12616;52.470;13.436;2023-09-30T14:01:02;3.40;;;1.83;;
24435;SDS011;12616;52.470;13.436;2023-09-30T14:03:29;2.87;;;1.80;;
24435;SDS011;12616;52.470;13.436;2023-09-30T14:05:57;6.13;;;1.80;;
24435;SDS011;12616;52.470;13.436;2023-09-30T14:08:24;12.70;;;2.10;;
24435;SDS011;12616;52.470;13.436;2023-09-30T14:10:51;5.70;;;1.90;;
24435;SDS011;12616;52.470;13.436;2023-09-30T14:13:18;3.33;;;1.83;;
24435;SDS011;12616;52.470;13.436;2023-09-30T14:15:45;4.70;;;2.10;;
24435;SDS011;12616;52.470;13.436;2023-09-30T14:18:12;3.30;;;1.37;;
24435;SDS011;12616;52.470;13.436;2023-09-30T14:20:40;9.80;;;2.40;;
24435;SDS011;12616;52.470;13.436;2023-09-30T14:23:08;4.73;;;2.37;;
24435;SDS011;12616;52.470;13.436;2023-09-30T14:25:35;2.70;;;2.03;;
24435;SDS011;12616;52.470;13.436;2023-09-30T14:28:02;3.97;;;1.33;;
24435;SDS011;12616;52.470;13.436;2023-09-30T14:30:38;4.83;;;2.03;;
24435;SDS011;12616;52.470;13.436;2023-09-30T14:33:05;9.20;;;2.00;;
24435;SDS011;12616;52.470;13.436;2023-09-30T14:35:32;1.93;;;1.63;;
24435;SDS011;12616;52.470;13.436;2023-09-30T14:38:02;4.53;;;2.50;;
24435;SDS011;12616;52.470;13.436;2023-09-30T14:40:32;3.03;;;2.10;;
24435;SDS011;12616;52.470;13.436;2023-09-30T14:43:04;4.93;;;1.73;;
24435;SDS011;12616;52.470;13.436;2023-09-30T14:45:31;5.50;;;1.87;;
24435;SDS011;12616;52.470;13.436;2023-09-30T14:47:59;5.73;;;1.80;;
24435;SDS011;12616;52.470;13.436;2023-09-30T14:50:26;3.37;;;1.80;;
24435;SDS011;12616;52.470;13.436;2023-09-30T14:52:53;3.30;;;2.03;;
24435;SDS011;12616;52.470;13.436;2023-09-30T14:55:20;4.03;;;1.80;;
24435;SDS011;12616;52.470;13.436;2023-09-30T14:57:48;7.10;;;2.20;;
24435;SDS011;12616;52.470;13.436;2023-09-30T15:00:15;8.30;;;3.53;;
24435;SDS011;12616;52.470;13.436;2023-09-30T15:02:42;6.57;;;2.83;;
24435;SDS011;12616;52.470;13.436;2023-09-30T15:05:09;4.17;;;1.90;;
24435;SDS011;12616;52.470;13.436;2023-09-30T15:07:36;2.77;;;1.93;;
24435;SDS011;12616;52.470;13.436;2023-09-30T15:10:03;8.00;;;4.30;;
24435;SDS011;12616;52.470;13.436;2023-09-30T15:12:31;8.90;;;2.90;;
24435;SDS011;12616;52.470;13.436;2023-09-30T15:14:59;2.20;;;2.00;;
24435;SDS011;12616;52.470;13.436;2023-09-30T15:17:26;6.20;;;1.83;;
24435;SDS011;12616;52.470;13.436;2023-09-30T15:19:54;4.63;;;2.30;;
24435;SDS011;12616;52.470;13.436;2023-09-30T15:22:21;10.03;;;2.73;;
24435;SDS011;12616;52.470;13.436;2023-09-30T15:24:48;4.60;;;2.20;;
24435;SDS011;12616;52.470;13.436;2023-09-30T15:27:15;6.50;;;2.93;;
24435;SDS011;12616;52.470;13.436;2023-09-30T15:29:43;26.13;;;15.00;;
24435;SDS011;12616;52.470;13.436;2023-09-30T15:32:11;5.00;;;2.97;;
24435;SDS011;12616;52.470;13.436;2023-09-30T15:34:38;5.23;;;2.43;;
24435;SDS011;12616;52.470;13.436;2023-09-30T15:37:05;4.77;;;2.73;;
24435;SDS011;12616;52.470;13.436;2023-09-30T15:39:36;5.30;;;2.33;;
24435;SDS011;12616;52.470;13.436;2023-09-30T15:42:04;4.03;;;2.50;;
24435;SDS011;12616;52.470;13.436;2023-09-30T15:44:31;4.77;;;2.03;;
24435;SDS011;12616;52.470;13.436;2023-09-30T15:46:58;5.57;;;1.93;;
24435;SDS011;12616;52.470;13.436;2023-09-30T15:49:26;3.60;;;1.77;;
24435;SDS011;12616;52.470;13.436;2023-09-30T15:51:53;8.70;;;2.00;;
24435;SDS011;12616;52.470;13.436;2023-09-30T16:28:04;6.13;;;2.50;;
24435;SDS011;12616;52.470;13.436;2023-09-30T16:34:08;3.00;;;2.30;;
24435;SDS011;12616;52.470;13.436;2023-09-30T18:32:11;6.73;;;4.43;;
24435;SDS011;12616;52.470;13.436;2023-09-30T18:35:09;6.03;;;5.40;;
24435;SDS011;12616;52.470;13.436;2023-09-30T18:37:46;12.10;;;5.80;;
24435;SDS011;12616;52.470;13.436;2023-09-30T18:40:22;7.00;;;5.50;;
24435;SDS011;12616;52.470;13.436;2023-09-30T18:42:49;7.30;;;5.27;;
24435;SDS011;12616;52.470;13.436;2023-09-30T18:45:20;8.50;;;6.00;;
24435;SDS011;12616;52.470;13.436;2023-09-30T18:47:49;6.07;;;4.80;;
24435;SDS011;12616;52.470;13.436;2023-09-30T18:50:18;12.83;;;6.20;;
24435;SDS011;12616;52.470;13.436;2023-09-30T18:52:45;11.70;;;5.30;;
24435;SDS011;12616;52.470;13.436;2023-09-30T18:55:12;10.20;;;5.73;;
24435;SDS011;12616;52.470;13.436;2023-09-30T18:57:39;9.73;;;5.90;;
24435;SDS011;12616;52.470;13.436;2023-09-30T19:00:07;16.33;;;6.33;;
24435;SDS011;12616;52.470;13.436;2023-09-30T19:02:37;13.20;;;5.60;;
24435;SDS011;12616;52.470;13.436;2023-09-30T19:05:06;8.90;;;5.07;;
24435;SDS011;12616;52.470;13.436;2023-09-30T19:07:33;13.60;;;4.90;;
24435;SDS011;12616;52.470;13.436;2023-09-30T19:10:00;8.47;;;4.10;;
24435;SDS011;12616;52.470;13.436;2023-09-30T19:12:27;7.37;;;3.77;;
24435;SDS011;12616;52.470;13.436;2023-09-30T19:14:54;5.50;;;3.70;;
24435;SDS011;12616;52.470;13.436;2023-09-30T19:17:21;7.20;;;4.40;;
24435;SDS011;12616;52.470;13.436;2023-09-30T19:19:48;8.80;;;5.30;;
24435;SDS011;12616;52.470;13.436;2023-09-30T19:22:17;10.17;;;4.00;;
24435;SDS011;12616;52.470;13.436;2023-09-30T19:24:44;6.53;;;3.53;;
24435;SDS011;12616;52.470;13.436;2023-09-30T19:27:12;9.67;;;3.97;;
24435;SDS011;12616;52.470;13.436;2023-09-30T19:29:39;7.30;;;4.23;;
24435;SDS011;12616;52.470;13.436;2023-09-30T19:32:06;10.13;;;4.17;;
24435;SDS011;12616;52.470;13.436;2023-09-30T19:34:34;5.67;;;4.43;;
24435;SDS011;12616;52.470;13.436;2023-09-30T19:37:01;8.70;;;5.93;;
24435;SDS011;12616;52.470;13.436;2023-09-30T19:39:29;9.83;;;5.80;;
24435;SDS011;12616;52.470;13.436;2023-09-30T19:41:55;11.27;;;6.20;;
24435;SDS011;12616;52.470;13.436;2023-09-30T19:44:23;7.40;;;4.30;;
24435;SDS011;12616;52.470;13.436;2023-09-30T19:46:50;9.10;;;3.93;;
24435;SDS011;12616;52.470;13.436;2023-09-30T19:49:18;7.00;;;4.47;;
24435;SDS011;12616;52.470;13.436;2023-09-30T19:51:45;8.30;;;4.60;;
24435;SDS011;12616;52.470;13.436;2023-09-30T19:54:12;15.00;;;9.43;;
24435;SDS011;12616;52.470;13.436;2023-09-30T19:56:41;15.73;;;6.80;;
24435;SDS011;12616;52.470;13.436;2023-09-30T19:59:08;6.27;;;4.10;;
24435;SDS011;12616;52.470;13.436;2023-09-30T20:01:35;9.60;;;6.10;;
24435;SDS011;12616;52.470;13.436;2023-09-30T20:04:03;8.00;;;5.90;;
24435;SDS011;12616;52.470;13.436;2023-09-30T20:06:31;10.50;;;5.33;;
24435;SDS011;12616;52.470;13.436;2023-09-30T20:08:59;9.90;;;6.13;;
24435;SDS011;12616;52.470;13.436;2023-09-30T20:11:25;11.27;;;6.03;;
24435;SDS011;12616;52.470;13.436;2023-09-30T20:13:59;5.50;;;4.20;;
24435;SDS011;12616;52.470;13.436;2023-09-30T20:16:27;8.40;;;5.17;;
24435;SDS011;12616;52.470;13.436;2023-09-30T20:18:58;13.53;;;5.07;;
24435;SDS011;12616;52.470;13.436;2023-09-30T20:21:25;9.10;;;5.20;;
24435;SDS011;12616;52.470;13.436;2023-09-30T20:23:55;8.83;;;5.40;;
24435;SDS011;12616;52.470;13.436;2023-09-30T20:26:27;7.80;;;5.30;;
24435;SDS011;12616;52.470;13.436;2023-09-30T20:29:01;11.43;;;5.47;;
24435;SDS011;12616;52.470;13.436;2023-09-30T20:31:32;6.90;;;4.30;;
24435;SDS011;12616;52.470;13.436;2023-09-30T20:34:00;8.00;;;4.53;;
24435;SDS011;12616;52.470;13.436;2023-09-30T20:36:30;6.40;;;4.67;;
24435;SDS011;12616;52.470;13.436;2023-09-30T20:38:57;6.40;;;4.53;;
24435;SDS011;12616;52.470;13.436;2023-09-30T20:41:24;7.53;;;4.83;;
24435;SDS011;12616;52.470;13.436;2023-09-30T20:43:52;12.33;;;4.90;;
24435;SDS011;12616;52.470;13.436;2023-09-30T20:46:20;7.53;;;5.13;;
24435;SDS011;12616;52.470;13.436;2023-09-30T20:48:49;18.63;;;5.17;;
24435;SDS011;12616;52.470;13.436;2023-09-30T20:51:16;5.50;;;4.67;;
24435;SDS011;12616;52.470;13.436;2023-09-30T20:53:43;6.50;;;4.20;;
24435;SDS011;12616;52.470;13.436;2023-09-30T20:56:18;10.90;;;6.57;;
24435;SDS011;12616;52.470;13.436;2023-09-30T20:58:53;12.10;;;4.30;;
24435;SDS011;12616;52.470;13.436;2023-09-30T21:01:46;9.97;;;5.03;;
24435;SDS011;12616;52.470;13.436;2023-09-30T21:04:13;4.90;;;4.30;;
24435;SDS011;12616;52.470;13.436;2023-09-30T21:06:45;8.97;;;4.70;;
24435;SDS011;12616;52.470;13.436;2023-09-30T21:09:12;7.43;;;5.13;;
24435;SDS011;12616;52.470;13.436;2023-09-30T21:11:46;10.40;;;4.67;;
24435;SDS011;12616;52.470;13.436;2023-09-30T21:14:16;7.57;;;5.33;;
24435;SDS011;12616;52.470;13.436;2023-09-30T21:16:52;8.43;;;6.50;;
24435;SDS011;12616;52.470;13.436;2023-09-30T21:19:23;8.37;;;5.97;;
24435;SDS011;12616;52.470;13.436;2023-09-30T21:21:56;8.00;;;5.47;;
24435;SDS011;12616;52.470;13.436;2023-09-30T21:24:43;8.30;;;5.47;;
24435;SDS011;12616;52.470;13.436;2023-09-30T21:27:15;9.70;;;6.20;;
24435;SDS011;12616;52.470;13.436;2023-09-30T21:30:19;8.00;;;6.00;;
24435;SDS011;12616;52.470;13.436;2023-09-30T21:36:01;8.90;;;6.30;;
24435;SDS011;12616;52.470;13.436;2023-09-30T21:38:54;8.40;;;5.90;;
24435;SDS011;12616;52.470;13.436;2023-09-30T21:44:41;6.73;;;5.30;;
24435;SDS011;12616;52.470;13.436;2023-09-30T21:47:35;9.80;;;5.27;;
24435;SDS011;12616;52.470;13.436;2023-09-30T21:53:46;7.20;;;5.70;;
24435;SDS011;12616;52.470;13.436;2023-09-30T21:56:27;8.30;;;6.47;;
24435;SDS011;12616;52.470;13.436;2023-09-30T21:59:08;10.53;;;5.70;;
24435;SDS011;12616;52.470;13.436;2023-09-30T22:01:52;8.20;;;6.03;;
24435;SDS011;12616;52.470;13.436;2023-09-30T22:04:32;6.20;;;5.30;;
24435;SDS011;12616;52.470;13.436;2023-09-30T22:07:11;9.50;;;6.00;;
24435;SDS011;12616;52.470;13.436;2023-09-30T22:09:53;8.13;;;5.60;;
24435;SDS011;12616;52.470;13.436;2023-09-30T22:12:26;7.67;;;5.47;;
24435;SDS011;12616;52.470;13.436;2023-09-30T22:15:02;9.30;;;5.43;;
24435;SDS011;12616;52.470;13.436;2023-09-30T22:17:44;6.93;;;5.93;;
24435;SDS011;12616;52.470;13.436;2023-09-30T22:20:35;12.60;;;6.90;;
24435;SDS011;12616;52.470;13.436;2023-09-30T22:26:35;17.40;;;10.60;;
24435;SDS011;12616;52.470;13.436;2023-09-30T22:29:21;13.17;;;9.20;;
24435;SDS011;12616;52.470;13.436;2023-09-30T22:31:55;12.30;;;7.30;;
24435;SDS011;12616;52.470;13.436;2023-09-30T22:34:27;9.70;;;5.87;;
24435;SDS011;12616;52.470;13.436;2023-09-30T22:37:03;14.37;;;8.00;;
24435;SDS011;12616;52.470;13.436;2023-09-30T22:42:59;10.70;;;5.80;;
24435;SDS011;12616;52.470;13.436;2023-09-30T22:45:53;5.87;;;5.23;;
24435;SDS011;12616;52.470;13.436;2023-09-30T22:48:27;7.10;;;5.67;;
24435;SDS011;12616;52.470;13.436;2023-09-30T22:51:24;9.00;;;5.83;;
24435;SDS011;12616;52.470;13.436;2023-09-30T22:54:59;7.33;;;4.90;;
24435;SDS011;12616;52.470;13.436;2023-09-30T22:57:44;5.77;;;5.23;;
24435;SDS011;12616;52.470;13.436;2023-09-30T23:00:44;9.17;;;5.60;;
24435;SDS011;12616;52.470;13.436;2023-09-30T23:03:23;12.57;;;5.20;;
24435;SDS011;12616;52.470;13.436;2023-09-30T23:05:53;6.93;;;5.50;;
24435;SDS011;12616;52.470;13.436;2023-09-30T23:08:39;10.10;;;5.33;;
24435;SDS011;12616;52.470;13.436;2023-09-30T23:16:57;6.07;;;5.47;;
24435;SDS011;12616;52.470;13.436;2023-09-30T23:19:38;7.20;;;5.60;;
24435;SDS011;12616;52.470;13.436;2023-09-30T23:22:21;6.77;;;5.60;;
24435;SDS011;12616;52.470;13.436;2023-09-30T23:25:15;9.10;;;5.60;;
24435;SDS011;12616;52.470;13.436;2023-09-30T23:28:05;14.77;;;5.70;;
24435;SDS011;12616;52.470;13.436;2023-09-30T23:30:56;7.83;;;5.47;;
24435;SDS011;12616;52.470;13.436;2023-09-30T23:33:38;11.90;;;6.77;;
24435;SDS011;12616;52.470;13.436;2023-09-30T23:36:17;11.57;;;5.80;;
24435;SDS011;12616;52.470;13.436;2023-09-30T23:39:00;11.67;;;6.03;;
24435;SDS011;12616;52.470;13.436;2023-09-30T23:42:02;9.33;;;5.60;;
24435;SDS011;12616;52.470;13.436;2023-09-30T23:44:49;10.30;;;7.30;;
24435;SDS011;12616;52.470;13.436;2023-09-30T23:47:41;9.40;;;6.63;;
24435;SDS011;12616;52.470;13.436;2023-09-30T23:50:14;13.10;;;6.53;;
24435;SDS011;12616;52.470;13.436;2023-09-30T23:52:42;10.60;;;6.87;;
24435;SDS011;12616;52.470;13.436;2023-09-30T23:55:09;7.30;;;5.40;;
24435;SDS011;12616;52.470;13.436;2023-09-30T23:57:39;7.30;;;6.10;;
